sensor_id;sensor_type;location;lat;lon;timestamp;temperature;humidity
32769;DHT22;23049;54.304;8.826;2023-09-18T00:02:18;19.50;99.90
32769;DHT22;23049;54.304;8.826;2023-09-18T00:07:04;19.40;99.90
32769;DHT22;23049;54.304;8.826;2023-09-18T00:11:46;19.30;99.90
32769;DHT22;23049;54.304;8.826;2023-09-18T00:14:12;19.40;99.90
32769;DHT22;23049;54.304;8.826;2023-09-18T00:16:38;19.40;99.90
32769;DHT22;23049;54.304;8.826;2023-09-18T00:19:04;19.40;99.90
32769;DHT22;23049;54.304;8.826;2023-09-18T00:21:31;19.30;99.90
32769;DHT22;23049;54.304;8.826;2023-09-18T00:23:57;19.20;99.90
32769;DHT22;23049;54.304;8.826;2023-09-18T00:26:24;19.30;99.90
32769;DHT22;23049;54.304;8.826;2023-09-18T00:28:50;19.30;99.90
32769;DHT22;23049;54.304;8.826;2023-09-18T00:31:15;19.20;99.90
32769;DHT22;23049;54.304;8.826;2023-09-18T00:33:41;19.20;99.90
32769;DHT22;23049;54.304;8.826;2023-09-18T00:36:06;19.20;99.90
32769;DHT22;23049;54.304;8.826;2023-09-18T00:38:32;19.20;99.90
32769;DHT22;23049;54.304;8.826;2023-09-18T00:40:57;19.20;99.90
32769;DHT22;23049;54.304;8.826;2023-09-18T00:43:23;19.20;99.90
32769;DHT22;23049;54.304;8.826;2023-09-18T00:45:48;19.20;99.90
32769;DHT22;23049;54.304;8.826;2023-09-18T00:48:14;19.20;99.90
32769;DHT22;23049;54.304;8.826;2023-09-18T00:50:40;19.30;99.90
32769;DHT22;23049;54.304;8.826;2023-09-18T00:53:09;19.30;99.90
32769;DHT22;23049;54.304;8.826;2023-09-18T00:55:36;19.30;99.90
32769;DHT22;23049;54.304;8.826;2023-09-18T00:58:02;19.20;99.90
32769;DHT22;23049;54.304;8.826;2023-09-18T01:00:27;19.30;99.90
32769;DHT22;23049;54.304;8.826;2023-09-18T01:02:53;19.30;99.90
32769;DHT22;23049;54.304;8.826;2023-09-18T01:05:18;19.20;99.90
32769;DHT22;23049;54.304;8.826;2023-09-18T01:07:45;19.20;99.90
32769;DHT22;23049;54.304;8.826;2023-09-18T01:10:11;19.20;99.90
32769;DHT22;23049;54.304;8.826;2023-09-18T01:12:48;19.20;99.90
32769;DHT22;23049;54.304;8.826;2023-09-18T01:15:22;19.20;99.90
32769;DHT22;23049;54.304;8.826;2023-09-18T01:17:49;19.20;99.90
32769;DHT22;23049;54.304;8.826;2023-09-18T01:20:15;19.20;99.90
32769;DHT22;23049;54.304;8.826;2023-09-18T01:22:40;19.20;99.90
32769;DHT22;23049;54.304;8.826;2023-09-18T01:25:06;19.20;99.90
32769;DHT22;23049;54.304;8.826;2023-09-18T01:27:32;19.10;99.90
32769;DHT22;23049;54.304;8.826;2023-09-18T01:29:58;19.10;99.90
32769;DHT22;23049;54.304;8.826;2023-09-18T01:32:24;19.10;99.90
32769;DHT22;23049;54.304;8.826;2023-09-18T01:34:52;19.10;99.90
32769;DHT22;23049;54.304;8.826;2023-09-18T01:37:19;19.00;99.90
32769;DHT22;23049;54.304;8.826;2023-09-18T01:39:46;19.00;99.90
32769;DHT22;23049;54.304;8.826;2023-09-18T01:42:13;18.90;99.90
32769;DHT22;23049;54.304;8.826;2023-09-18T01:44:39;19.00;99.90
32769;DHT22;23049;54.304;8.826;2023-09-18T01:47:12;18.80;99.90
32769;DHT22;23049;54.304;8.826;2023-09-18T01:49:38;18.80;99.90
32769;DHT22;23049;54.304;8.826;2023-09-18T01:52:05;18.80;99.90
32769;DHT22;23049;54.304;8.826;2023-09-18T01:54:31;18.70;99.90
32769;DHT22;23049;54.304;8.826;2023-09-18T01:56:57;18.60;99.90
32769;DHT22;23049;54.304;8.826;2023-09-18T01:59:22;18.30;99.90
32769;DHT22;23049;54.304;8.826;2023-09-18T02:01:48;18.10;99.90
32769;DHT22;23049;54.304;8.826;2023-09-18T02:04:14;17.90;99.90
32769;DHT22;23049;54.304;8.826;2023-09-18T02:06:39;17.80;99.90
32769;DHT22;23049;54.304;8.826;2023-09-18T02:09:06;17.80;99.90
32769;DHT22;23049;54.304;8.826;2023-09-18T02:11:42;17.80;99.90
32769;DHT22;23049;54.304;8.826;2023-09-18T02:14:08;17.80;99.90
32769;DHT22;23049;54.304;8.826;2023-09-18T02:16:35;17.80;99.90
32769;DHT22;23049;54.304;8.826;2023-09-18T02:19:01;17.80;99.90
32769;DHT22;23049;54.304;8.826;2023-09-18T02:21:27;17.70;99.90
32769;DHT22;23049;54.304;8.826;2023-09-18T02:23:53;17.70;99.90
32769;DHT22;23049;54.304;8.826;2023-09-18T02:26:19;17.70;99.90
32769;DHT22;23049;54.304;8.826;2023-09-18T02:28:44;17.80;99.90
32769;DHT22;23049;54.304;8.826;2023-09-18T02:31:10;17.90;99.90
32769;DHT22;23049;54.304;8.826;2023-09-18T02:33:36;18.00;99.90
32769;DHT22;23049;54.304;8.826;2023-09-18T02:36:02;18.00;99.90
32769;DHT22;23049;54.304;8.826;2023-09-18T02:38:28;18.00;99.90
32769;DHT22;23049;54.304;8.826;2023-09-18T02:40:53;18.10;99.90
32769;DHT22;23049;54.304;8.826;2023-09-18T02:43:20;18.10;99.90
32769;DHT22;23049;54.304;8.826;2023-09-18T02:45:46;17.90;99.90
32769;DHT22;23049;54.304;8.826;2023-09-18T02:48:11;17.70;99.90
32769;DHT22;23049;54.304;8.826;2023-09-18T02:50:37;17.50;99.90
32769;DHT22;23049;54.304;8.826;2023-09-18T02:53:05;17.40;99.90
32769;DHT22;23049;54.304;8.826;2023-09-18T02:55:30;17.30;99.90
32769;DHT22;23049;54.304;8.826;2023-09-18T02:57:56;17.30;99.90
32769;DHT22;23049;54.304;8.826;2023-09-18T03:00:21;17.30;99.90
32769;DHT22;23049;54.304;8.826;2023-09-18T03:02:47;17.30;99.90
32769;DHT22;23049;54.304;8.826;2023-09-18T03:05:12;17.20;99.90
32769;DHT22;23049;54.304;8.826;2023-09-18T03:07:38;17.20;99.90
32769;DHT22;23049;54.304;8.826;2023-09-18T03:10:04;17.20;99.90
32769;DHT22;23049;54.304;8.826;2023-09-18T03:12:30;17.10;99.90
32769;DHT22;23049;54.304;8.826;2023-09-18T03:14:57;17.10;99.90
32769;DHT22;23049;54.304;8.826;2023-09-18T03:17:22;17.10;99.90
32769;DHT22;23049;54.304;8.826;2023-09-18T03:19:48;17.10;99.90
32769;DHT22;23049;54.304;8.826;2023-09-18T03:22:14;17.00;99.90
32769;DHT22;23049;54.304;8.826;2023-09-18T03:24:39;16.80;99.90
32769;DHT22;23049;54.304;8.826;2023-09-18T03:27:05;16.70;99.90
32769;DHT22;23049;54.304;8.826;2023-09-18T03:29:30;16.70;99.90
32769;DHT22;23049;54.304;8.826;2023-09-18T03:31:56;16.80;99.90
32769;DHT22;23049;54.304;8.826;2023-09-18T03:34:23;16.80;99.90
32769;DHT22;23049;54.304;8.826;2023-09-18T03:36:52;16.80;99.90
32769;DHT22;23049;54.304;8.826;2023-09-18T03:39:18;16.90;99.90
32769;DHT22;23049;54.304;8.826;2023-09-18T03:41:43;16.90;99.90
32769;DHT22;23049;54.304;8.826;2023-09-18T03:44:10;16.90;99.90
32769;DHT22;23049;54.304;8.826;2023-09-18T03:46:35;16.80;99.90
32769;DHT22;23049;54.304;8.826;2023-09-18T03:49:01;16.90;99.90
32769;DHT22;23049;54.304;8.826;2023-09-18T03:51:26;16.80;99.90
32769;DHT22;23049;54.304;8.826;2023-09-18T03:53:52;16.80;99.90
32769;DHT22;23049;54.304;8.826;2023-09-18T03:56:17;17.00;99.90
32769;DHT22;23049;54.304;8.826;2023-09-18T03:58:43;17.00;99.90
32769;DHT22;23049;54.304;8.826;2023-09-18T04:01:12;17.10;99.90
32769;DHT22;23049;54.304;8.826;2023-09-18T04:03:37;17.10;99.90
32769;DHT22;23049;54.304;8.826;2023-09-18T04:06:02;17.20;99.90
32769;DHT22;23049;54.304;8.826;2023-09-18T04:08:28;17.30;99.90
32769;DHT22;23049;54.304;8.826;2023-09-18T04:13:07;17.40;99.90
32769;DHT22;23049;54.304;8.826;2023-09-18T04:15:33;17.50;99.90
32769;DHT22;23049;54.304;8.826;2023-09-18T04:18:03;17.60;99.90
32769;DHT22;23049;54.304;8.826;2023-09-18T04:20:29;17.70;99.90
32769;DHT22;23049;54.304;8.826;2023-09-18T04:25:39;17.60;99.90
32769;DHT22;23049;54.304;8.826;2023-09-18T04:28:05;17.60;99.90
32769;DHT22;23049;54.304;8.826;2023-09-18T04:33:01;17.50;99.90
32769;DHT22;23049;54.304;8.826;2023-09-18T04:35:26;17.40;99.90
32769;DHT22;23049;54.304;8.826;2023-09-18T04:37:55;17.40;99.90
32769;DHT22;23049;54.304;8.826;2023-09-18T04:40:20;17.50;99.90
32769;DHT22;23049;54.304;8.826;2023-09-18T04:45:00;17.70;99.90
32769;DHT22;23049;54.304;8.826;2023-09-18T04:47:26;17.80;99.90
32769;DHT22;23049;54.304;8.826;2023-09-18T04:49:51;17.80;99.90
32769;DHT22;23049;54.304;8.826;2023-09-18T04:52:17;17.90;99.90
32769;DHT22;23049;54.304;8.826;2023-09-18T04:54:42;17.90;99.90
32769;DHT22;23049;54.304;8.826;2023-09-18T04:57:08;17.90;99.90
32769;DHT22;23049;54.304;8.826;2023-09-18T04:59:33;17.90;99.90
32769;DHT22;23049;54.304;8.826;2023-09-18T05:01:59;17.90;99.90
32769;DHT22;23049;54.304;8.826;2023-09-18T05:04:25;18.00;99.90
32769;DHT22;23049;54.304;8.826;2023-09-18T05:06:50;18.00;99.90
32769;DHT22;23049;54.304;8.826;2023-09-18T05:09:17;18.00;99.90
32769;DHT22;23049;54.304;8.826;2023-09-18T05:11:42;18.00;99.90
32769;DHT22;23049;54.304;8.826;2023-09-18T05:14:08;18.00;99.90
32769;DHT22;23049;54.304;8.826;2023-09-18T05:16:33;18.00;99.90
32769;DHT22;23049;54.304;8.826;2023-09-18T05:18:59;17.90;99.90
32769;DHT22;23049;54.304;8.826;2023-09-18T05:21:25;17.90;99.90
32769;DHT22;23049;54.304;8.826;2023-09-18T05:23:52;17.80;99.90
32769;DHT22;23049;54.304;8.826;2023-09-18T05:26:19;17.90;99.90
32769;DHT22;23049;54.304;8.826;2023-09-18T05:28:44;17.90;99.90
32769;DHT22;23049;54.304;8.826;2023-09-18T05:31:10;17.90;99.90
32769;DHT22;23049;54.304;8.826;2023-09-18T05:33:35;17.90;99.90
32769;DHT22;23049;54.304;8.826;2023-09-18T05:36:01;17.90;99.90
32769;DHT22;23049;54.304;8.826;2023-09-18T05:38:26;18.00;99.90
32769;DHT22;23049;54.304;8.826;2023-09-18T05:43:12;18.00;99.90
32769;DHT22;23049;54.304;8.826;2023-09-18T05:45:38;18.00;99.90
32769;DHT22;23049;54.304;8.826;2023-09-18T05:48:03;18.00;99.90
32769;DHT22;23049;54.304;8.826;2023-09-18T05:50:30;18.00;99.90
32769;DHT22;23049;54.304;8.826;2023-09-18T05:52:57;18.00;99.90
32769;DHT22;23049;54.304;8.826;2023-09-18T05:55:26;17.90;99.90
32769;DHT22;23049;54.304;8.826;2023-09-18T05:57:52;17.90;99.90
32769;DHT22;23049;54.304;8.826;2023-09-18T06:00:17;17.90;99.90
32769;DHT22;23049;54.304;8.826;2023-09-18T06:02:43;17.90;99.90
32769;DHT22;23049;54.304;8.826;2023-09-18T06:08:00;17.90;99.90
32769;DHT22;23049;54.304;8.826;2023-09-18T06:10:26;18.00;99.90
32769;DHT22;23049;54.304;8.826;2023-09-18T06:12:52;18.00;99.90
32769;DHT22;23049;54.304;8.826;2023-09-18T06:15:17;17.90;99.90
32769;DHT22;23049;54.304;8.826;2023-09-18T06:17:44;18.00;99.90
32769;DHT22;23049;54.304;8.826;2023-09-18T06:20:10;17.90;99.90
32769;DHT22;23049;54.304;8.826;2023-09-18T06:22:36;18.00;99.90
32769;DHT22;23049;54.304;8.826;2023-09-18T06:25:02;18.10;99.90
32769;DHT22;23049;54.304;8.826;2023-09-18T06:27:28;18.10;99.90
32769;DHT22;23049;54.304;8.826;2023-09-18T06:29:53;18.20;99.90
32769;DHT22;23049;54.304;8.826;2023-09-18T06:32:19;18.20;99.90
32769;DHT22;23049;54.304;8.826;2023-09-18T06:34:44;18.20;99.90
32769;DHT22;23049;54.304;8.826;2023-09-18T06:37:12;18.30;99.90
32769;DHT22;23049;54.304;8.826;2023-09-18T06:39:38;18.30;99.90
32769;DHT22;23049;54.304;8.826;2023-09-18T06:42:04;18.40;99.90
32769;DHT22;23049;54.304;8.826;2023-09-18T06:44:29;18.50;99.90
32769;DHT22;23049;54.304;8.826;2023-09-18T06:46:55;18.50;99.90
32769;DHT22;23049;54.304;8.826;2023-09-18T06:49:21;18.50;99.90
32769;DHT22;23049;54.304;8.826;2023-09-18T06:51:46;18.60;99.90
32769;DHT22;23049;54.304;8.826;2023-09-18T06:54:12;18.70;99.90
32769;DHT22;23049;54.304;8.826;2023-09-18T06:56:37;18.70;99.90
32769;DHT22;23049;54.304;8.826;2023-09-18T06:59:03;18.80;99.90
32769;DHT22;23049;54.304;8.826;2023-09-18T07:01:28;18.90;99.90
32769;DHT22;23049;54.304;8.826;2023-09-18T07:03:56;19.10;99.90
32769;DHT22;23049;54.304;8.826;2023-09-18T07:06:22;19.20;99.90
32769;DHT22;23049;54.304;8.826;2023-09-18T07:08:48;19.30;99.90
32769;DHT22;23049;54.304;8.826;2023-09-18T07:11:17;19.40;99.90
32769;DHT22;23049;54.304;8.826;2023-09-18T07:13:42;19.40;99.90
32769;DHT22;23049;54.304;8.826;2023-09-18T07:16:08;19.50;99.90
32769;DHT22;23049;54.304;8.826;2023-09-18T07:18:34;19.60;99.90
32769;DHT22;23049;54.304;8.826;2023-09-18T07:20:59;19.60;99.90
32769;DHT22;23049;54.304;8.826;2023-09-18T07:23:25;19.50;99.90
32769;DHT22;23049;54.304;8.826;2023-09-18T07:25:51;19.50;99.90
32769;DHT22;23049;54.304;8.826;2023-09-18T07:28:16;19.40;99.90
32769;DHT22;23049;54.304;8.826;2023-09-18T07:30:44;19.40;99.90
32769;DHT22;23049;54.304;8.826;2023-09-18T07:33:10;19.50;99.90
32769;DHT22;23049;54.304;8.826;2023-09-18T07:35:35;19.70;99.90
32769;DHT22;23049;54.304;8.826;2023-09-18T07:38:01;19.80;99.90
32769;DHT22;23049;54.304;8.826;2023-09-18T07:40:26;19.90;99.90
32769;DHT22;23049;54.304;8.826;2023-09-18T07:42:52;20.00;99.90
32769;DHT22;23049;54.304;8.826;2023-09-18T07:45:18;20.10;99.90
32769;DHT22;23049;54.304;8.826;2023-09-18T07:47:43;20.20;99.90
32769;DHT22;23049;54.304;8.826;2023-09-18T07:50:09;20.30;99.90
32769;DHT22;23049;54.304;8.826;2023-09-18T07:52:35;20.40;99.90
32769;DHT22;23049;54.304;8.826;2023-09-18T07:55:00;20.50;99.90
32769;DHT22;23049;54.304;8.826;2023-09-18T07:57:26;20.60;99.90
32769;DHT22;23049;54.304;8.826;2023-09-18T07:59:55;20.60;99.90
32769;DHT22;23049;54.304;8.826;2023-09-18T08:02:20;20.70;99.90
32769;DHT22;23049;54.304;8.826;2023-09-18T08:04:47;20.70;99.90
32769;DHT22;23049;54.304;8.826;2023-09-18T08:07:12;20.80;99.90
32769;DHT22;23049;54.304;8.826;2023-09-18T08:09:38;20.90;99.90
32769;DHT22;23049;54.304;8.826;2023-09-18T08:12:04;20.90;99.90
32769;DHT22;23049;54.304;8.826;2023-09-18T08:14:30;20.90;99.90
32769;DHT22;23049;54.304;8.826;2023-09-18T08:16:59;20.90;99.90
32769;DHT22;23049;54.304;8.826;2023-09-18T08:19:25;20.90;99.90
32769;DHT22;23049;54.304;8.826;2023-09-18T08:21:53;20.90;99.90
32769;DHT22;23049;54.304;8.826;2023-09-18T08:24:19;20.90;99.90
32769;DHT22;23049;54.304;8.826;2023-09-18T08:26:44;20.90;99.90
32769;DHT22;23049;54.304;8.826;2023-09-18T08:29:10;21.00;99.90
32769;DHT22;23049;54.304;8.826;2023-09-18T08:34:00;21.00;99.90
32769;DHT22;23049;54.304;8.826;2023-09-18T08:36:25;21.00;99.90
32769;DHT22;23049;54.304;8.826;2023-09-18T08:41:06;21.00;99.90
32769;DHT22;23049;54.304;8.826;2023-09-18T08:43:34;20.90;99.90
32769;DHT22;23049;54.304;8.826;2023-09-18T08:46:00;20.90;99.90
32769;DHT22;23049;54.304;8.826;2023-09-18T08:48:29;20.90;99.90
32769;DHT22;23049;54.304;8.826;2023-09-18T08:53:28;20.90;99.90
32769;DHT22;23049;54.304;8.826;2023-09-18T08:55:54;20.80;99.90
32769;DHT22;23049;54.304;8.826;2023-09-18T08:58:24;20.70;99.90
32769;DHT22;23049;54.304;8.826;2023-09-18T09:00:50;20.70;99.90
32769;DHT22;23049;54.304;8.826;2023-09-18T09:03:15;20.60;99.90
32769;DHT22;23049;54.304;8.826;2023-09-18T09:05:41;20.60;99.90
32769;DHT22;23049;54.304;8.826;2023-09-18T09:08:06;20.60;99.90
32769;DHT22;23049;54.304;8.826;2023-09-18T09:10:32;20.50;99.90
32769;DHT22;23049;54.304;8.826;2023-09-18T09:12:58;20.50;99.90
32769;DHT22;23049;54.304;8.826;2023-09-18T09:18:21;20.50;99.90
32769;DHT22;23049;54.304;8.826;2023-09-18T09:23:48;20.50;99.90
32769;DHT22;23049;54.304;8.826;2023-09-18T09:26:15;20.50;99.90
32769;DHT22;23049;54.304;8.826;2023-09-18T09:28:42;20.50;99.90
32769;DHT22;23049;54.304;8.826;2023-09-18T09:31:08;20.50;99.90
32769;DHT22;23049;54.304;8.826;2023-09-18T09:33:36;20.50;99.90
32769;DHT22;23049;54.304;8.826;2023-09-18T09:36:03;20.40;99.90
32769;DHT22;23049;54.304;8.826;2023-09-18T09:38:30;20.40;99.90
32769;DHT22;23049;54.304;8.826;2023-09-18T09:40:59;20.40;99.90
32769;DHT22;23049;54.304;8.826;2023-09-18T09:43:26;20.50;99.90
32769;DHT22;23049;54.304;8.826;2023-09-18T09:45:56;20.60;99.90
32769;DHT22;23049;54.304;8.826;2023-09-18T09:48:23;20.60;99.90
32769;DHT22;23049;54.304;8.826;2023-09-18T09:50:50;20.50;99.90
32769;DHT22;23049;54.304;8.826;2023-09-18T09:53:16;20.50;99.90
32769;DHT22;23049;54.304;8.826;2023-09-18T09:55:42;20.40;99.90
32769;DHT22;23049;54.304;8.826;2023-09-18T09:58:08;20.30;99.90
32769;DHT22;23049;54.304;8.826;2023-09-18T10:06:41;20.30;99.90
32769;DHT22;23049;54.304;8.826;2023-09-18T10:09:07;20.20;99.90
32769;DHT22;23049;54.304;8.826;2023-09-18T10:13:53;20.30;99.90
32769;DHT22;23049;54.304;8.826;2023-09-18T10:16:21;20.30;99.90
32769;DHT22;23049;54.304;8.826;2023-09-18T10:26:24;20.40;99.90
32769;DHT22;23049;54.304;8.826;2023-09-18T10:28:54;20.50;99.90
32769;DHT22;23049;54.304;8.826;2023-09-18T10:31:25;20.50;99.90
32769;DHT22;23049;54.304;8.826;2023-09-18T10:33:51;20.50;99.90
32769;DHT22;23049;54.304;8.826;2023-09-18T10:36:19;20.50;99.90
32769;DHT22;23049;54.304;8.826;2023-09-18T10:38:46;20.40;99.90
32769;DHT22;23049;54.304;8.826;2023-09-18T10:41:16;20.50;99.90
32769;DHT22;23049;54.304;8.826;2023-09-18T10:43:44;20.50;99.90
32769;DHT22;23049;54.304;8.826;2023-09-18T10:46:10;20.50;99.90
32769;DHT22;23049;54.304;8.826;2023-09-18T10:48:39;20.50;99.90
32769;DHT22;23049;54.304;8.826;2023-09-18T10:51:06;20.50;99.90
32769;DHT22;23049;54.304;8.826;2023-09-18T10:53:32;20.50;99.90
32769;DHT22;23049;54.304;8.826;2023-09-18T10:55:57;20.60;99.90
32769;DHT22;23049;54.304;8.826;2023-09-18T10:58:23;20.60;99.90
32769;DHT22;23049;54.304;8.826;2023-09-18T11:00:53;20.50;99.90
32769;DHT22;23049;54.304;8.826;2023-09-18T11:03:21;20.50;99.90
32769;DHT22;23049;54.304;8.826;2023-09-18T11:05:48;20.40;99.90
32769;DHT22;23049;54.304;8.826;2023-09-18T11:08:25;20.50;99.90
32769;DHT22;23049;54.304;8.826;2023-09-18T11:13:28;20.30;99.90
32769;DHT22;23049;54.304;8.826;2023-09-18T11:15:58;20.30;99.90
32769;DHT22;23049;54.304;8.826;2023-09-18T11:18:24;20.30;99.90
32769;DHT22;23049;54.304;8.826;2023-09-18T11:21:10;20.30;99.90
32769;DHT22;23049;54.304;8.826;2023-09-18T11:23:36;20.30;99.90
32769;DHT22;23049;54.304;8.826;2023-09-18T11:26:03;20.30;99.90
32769;DHT22;23049;54.304;8.826;2023-09-18T11:28:30;20.30;99.90
32769;DHT22;23049;54.304;8.826;2023-09-18T11:30:58;20.30;99.90
32769;DHT22;23049;54.304;8.826;2023-09-18T11:33:35;20.30;99.90
32769;DHT22;23049;54.304;8.826;2023-09-18T11:38:33;20.40;99.90
32769;DHT22;23049;54.304;8.826;2023-09-18T11:43:37;20.50;99.90
32769;DHT22;23049;54.304;8.826;2023-09-18T11:46:05;20.60;99.90
32769;DHT22;23049;54.304;8.826;2023-09-18T11:48:30;20.60;99.90
32769;DHT22;23049;54.304;8.826;2023-09-18T11:53:11;20.70;99.90
32769;DHT22;23049;54.304;8.826;2023-09-18T11:55:39;20.70;99.90
32769;DHT22;23049;54.304;8.826;2023-09-18T11:58:05;20.80;99.90
32769;DHT22;23049;54.304;8.826;2023-09-18T12:00:30;20.90;99.90
32769;DHT22;23049;54.304;8.826;2023-09-18T12:02:56;21.00;99.90
32769;DHT22;23049;54.304;8.826;2023-09-18T12:05:23;21.00;99.90
32769;DHT22;23049;54.304;8.826;2023-09-18T12:07:51;21.10;99.90
32769;DHT22;23049;54.304;8.826;2023-09-18T12:10:17;21.20;99.90
32769;DHT22;23049;54.304;8.826;2023-09-18T12:12:43;21.30;99.90
32769;DHT22;23049;54.304;8.826;2023-09-18T12:15:17;21.40;99.90
32769;DHT22;23049;54.304;8.826;2023-09-18T12:17:42;21.50;99.90
32769;DHT22;23049;54.304;8.826;2023-09-18T12:20:17;21.50;99.90
32769;DHT22;23049;54.304;8.826;2023-09-18T12:22:47;21.50;99.90
32769;DHT22;23049;54.304;8.826;2023-09-18T12:25:13;21.60;99.90
32769;DHT22;23049;54.304;8.826;2023-09-18T12:27:39;21.50;99.90
32769;DHT22;23049;54.304;8.826;2023-09-18T12:30:05;21.40;99.90
32769;DHT22;23049;54.304;8.826;2023-09-18T12:40:21;21.70;99.90
32769;DHT22;23049;54.304;8.826;2023-09-18T12:42:47;21.70;99.90
32769;DHT22;23049;54.304;8.826;2023-09-18T12:45:13;21.60;99.90
32769;DHT22;23049;54.304;8.826;2023-09-18T12:47:38;21.60;99.90
32769;DHT22;23049;54.304;8.826;2023-09-18T12:50:07;21.60;99.90
32769;DHT22;23049;54.304;8.826;2023-09-18T12:52:32;21.60;99.90
32769;DHT22;23049;54.304;8.826;2023-09-18T12:54:58;21.50;99.90
32769;DHT22;23049;54.304;8.826;2023-09-18T12:57:25;21.50;99.90
32769;DHT22;23049;54.304;8.826;2023-09-18T12:59:50;21.40;99.90
32769;DHT22;23049;54.304;8.826;2023-09-18T13:02:18;21.40;99.90
32769;DHT22;23049;54.304;8.826;2023-09-18T13:04:53;21.50;99.90
32769;DHT22;23049;54.304;8.826;2023-09-18T13:07:19;21.60;99.90
32769;DHT22;23049;54.304;8.826;2023-09-18T13:12:25;21.50;99.90
32769;DHT22;23049;54.304;8.826;2023-09-18T13:15:02;21.60;99.90
32769;DHT22;23049;54.304;8.826;2023-09-18T13:20:11;21.60;99.90
32769;DHT22;23049;54.304;8.826;2023-09-18T13:22:38;21.60;99.90
32769;DHT22;23049;54.304;8.826;2023-09-18T13:25:05;21.70;99.90
32769;DHT22;23049;54.304;8.826;2023-09-18T13:27:30;21.80;99.90
32769;DHT22;23049;54.304;8.826;2023-09-18T13:29:56;21.90;99.90
32769;DHT22;23049;54.304;8.826;2023-09-18T13:32:23;22.00;99.90
32769;DHT22;23049;54.304;8.826;2023-09-18T13:34:49;22.20;99.90
32769;DHT22;23049;54.304;8.826;2023-09-18T13:37:14;22.20;99.90
32769;DHT22;23049;54.304;8.826;2023-09-18T13:39:42;22.30;99.90
32769;DHT22;23049;54.304;8.826;2023-09-18T13:42:08;22.30;99.90
32769;DHT22;23049;54.304;8.826;2023-09-18T13:44:33;22.30;99.90
32769;DHT22;23049;54.304;8.826;2023-09-18T13:47:00;22.30;99.90
32769;DHT22;23049;54.304;8.826;2023-09-18T13:49:25;22.30;99.90
32769;DHT22;23049;54.304;8.826;2023-09-18T13:54:04;22.40;99.90
32769;DHT22;23049;54.304;8.826;2023-09-18T13:56:31;22.40;99.90
32769;DHT22;23049;54.304;8.826;2023-09-18T13:58:56;22.30;99.90
32769;DHT22;23049;54.304;8.826;2023-09-18T14:01:25;22.40;99.90
32769;DHT22;23049;54.304;8.826;2023-09-18T14:03:52;22.40;99.90
32769;DHT22;23049;54.304;8.826;2023-09-18T14:06:17;22.40;99.90
32769;DHT22;23049;54.304;8.826;2023-09-18T14:08:43;22.40;99.90
32769;DHT22;23049;54.304;8.826;2023-09-18T14:13:21;22.40;99.90
32769;DHT22;23049;54.304;8.826;2023-09-18T14:18:17;22.40;99.90
32769;DHT22;23049;54.304;8.826;2023-09-18T14:20:43;22.40;99.90
32769;DHT22;23049;54.304;8.826;2023-09-18T14:23:08;22.30;99.90
32769;DHT22;23049;54.304;8.826;2023-09-18T14:25:34;22.10;99.90
32769;DHT22;23049;54.304;8.826;2023-09-18T14:27:59;22.30;99.90
32769;DHT22;23049;54.304;8.826;2023-09-18T14:30:25;22.30;99.90
32769;DHT22;23049;54.304;8.826;2023-09-18T14:32:55;22.20;99.90
32769;DHT22;23049;54.304;8.826;2023-09-18T14:35:21;22.30;99.90
32769;DHT22;23049;54.304;8.826;2023-09-18T14:37:48;22.30;99.90
32769;DHT22;23049;54.304;8.826;2023-09-18T14:40:14;22.30;99.90
32769;DHT22;23049;54.304;8.826;2023-09-18T14:42:40;22.30;99.90
32769;DHT22;23049;54.304;8.826;2023-09-18T14:45:05;22.30;99.90
32769;DHT22;23049;54.304;8.826;2023-09-18T14:47:31;22.30;99.90
32769;DHT22;23049;54.304;8.826;2023-09-18T14:49:57;22.30;99.90
32769;DHT22;23049;54.304;8.826;2023-09-18T14:52:23;22.30;99.90
32769;DHT22;23049;54.304;8.826;2023-09-18T14:54:51;22.30;99.90
32769;DHT22;23049;54.304;8.826;2023-09-18T14:57:17;22.30;99.90
32769;DHT22;23049;54.304;8.826;2023-09-18T14:59:42;22.20;99.90
32769;DHT22;23049;54.304;8.826;2023-09-18T15:02:13;22.10;99.90
32769;DHT22;23049;54.304;8.826;2023-09-18T15:04:39;22.10;99.90
32769;DHT22;23049;54.304;8.826;2023-09-18T15:07:05;22.10;99.90
32769;DHT22;23049;54.304;8.826;2023-09-18T15:09:30;22.20;99.90
32769;DHT22;23049;54.304;8.826;2023-09-18T15:11:56;22.10;99.90
32769;DHT22;23049;54.304;8.826;2023-09-18T15:14:22;21.90;99.90
32769;DHT22;23049;54.304;8.826;2023-09-18T15:16:47;21.80;99.90
32769;DHT22;23049;54.304;8.826;2023-09-18T15:19:13;21.60;99.90
32769;DHT22;23049;54.304;8.826;2023-09-18T15:21:39;21.60;99.90
32769;DHT22;23049;54.304;8.826;2023-09-18T15:24:06;21.50;99.90
32769;DHT22;23049;54.304;8.826;2023-09-18T15:26:31;21.50;99.90
32769;DHT22;23049;54.304;8.826;2023-09-18T15:28:57;21.50;99.90
32769;DHT22;23049;54.304;8.826;2023-09-18T15:31:23;21.50;99.90
32769;DHT22;23049;54.304;8.826;2023-09-18T15:33:50;21.40;99.90
32769;DHT22;23049;54.304;8.826;2023-09-18T15:36:15;21.40;99.90
32769;DHT22;23049;54.304;8.826;2023-09-18T15:38:41;21.40;99.90
32769;DHT22;23049;54.304;8.826;2023-09-18T15:41:06;21.40;99.90
32769;DHT22;23049;54.304;8.826;2023-09-18T15:43:33;21.30;99.90
32769;DHT22;23049;54.304;8.826;2023-09-18T15:45:58;21.40;99.90
32769;DHT22;23049;54.304;8.826;2023-09-18T15:48:24;21.40;99.90
32769;DHT22;23049;54.304;8.826;2023-09-18T15:50:53;21.40;99.90
32769;DHT22;23049;54.304;8.826;2023-09-18T15:53:18;21.40;99.90
32769;DHT22;23049;54.304;8.826;2023-09-18T15:55:44;21.40;99.90
32769;DHT22;23049;54.304;8.826;2023-09-18T15:58:10;21.40;99.90
32769;DHT22;23049;54.304;8.826;2023-09-18T16:00:36;21.30;99.90
32769;DHT22;23049;54.304;8.826;2023-09-18T16:03:02;21.30;99.90
32769;DHT22;23049;54.304;8.826;2023-09-18T16:08:00;21.30;99.90
32769;DHT22;23049;54.304;8.826;2023-09-18T16:10:25;21.20;99.90
32769;DHT22;23049;54.304;8.826;2023-09-18T16:15:21;20.50;99.90
32769;DHT22;23049;54.304;8.826;2023-09-18T16:17:47;20.30;99.90
32769;DHT22;23049;54.304;8.826;2023-09-18T16:20:12;20.30;99.90
32769;DHT22;23049;54.304;8.826;2023-09-18T16:22:38;20.20;99.90
32769;DHT22;23049;54.304;8.826;2023-09-18T16:31:08;20.10;99.90
32769;DHT22;23049;54.304;8.826;2023-09-18T16:33:37;20.20;99.90
32769;DHT22;23049;54.304;8.826;2023-09-18T16:36:02;20.20;99.90
32769;DHT22;23049;54.304;8.826;2023-09-18T16:38:28;20.30;99.90
32769;DHT22;23049;54.304;8.826;2023-09-18T16:40:54;20.40;99.90
32769;DHT22;23049;54.304;8.826;2023-09-18T16:43:19;20.40;99.90
32769;DHT22;23049;54.304;8.826;2023-09-18T16:45:46;20.50;99.90
32769;DHT22;23049;54.304;8.826;2023-09-18T16:48:13;20.50;99.90
32769;DHT22;23049;54.304;8.826;2023-09-18T16:50:38;20.50;99.90
32769;DHT22;23049;54.304;8.826;2023-09-18T16:53:04;20.40;99.90
32769;DHT22;23049;54.304;8.826;2023-09-18T16:55:30;20.40;99.90